Time;durP1;ratioP1;P1;durP2;ratioP2;P2;SDS_P1;SDS_P2;PMS_P1;PMS_P2;Temp;Humidity;BMP_temperature;BMP_pressure;BME280_temperature;BME280_humidity;BME280_pressure;Samples;Min_cycle;Max_cycle;Signal;HPM_P1;HPM_P2
2022/11/19 00:01:33;;;;;;;2.33;1.87;;;;;;;7.56;65.96;98762.97;4381086;32;32968;-88
2022/11/19 00:04:01;;;;;;;0.65;0.65;;;;;;;7.74;64.82;98775.22;4368516;32;33538;-89
2022/11/19 00:06:28;;;;;;;1.12;1.02;;;;;;;7.96;63.52;98786.38;4393794;32;33088;-88
2022/11/19 00:08:56;;;;;;;0.77;0.77;;;;;;;7.50;65.46;98785.12;4378283;32;34501;-89
2022/11/19 00:14:14;;;;;;;0.45;0.45;;;;;;;7.49;65.12;98786.03;4391156;32;33160;-89
2022/11/19 00:16:42;;;;;;;2.15;1.95;;;;;;;7.61;64.82;98800.38;4389569;32;32341;-89
2022/11/19 00:19:11;;;;;;;0.13;0.13;;;;;;;7.31;66.06;98803.53;4375343;32;34074;-89
2022/11/19 00:21:38;;;;;;;3.03;1.20;;;;;;;7.43;64.86;98800.31;4363081;32;33050;-89
2022/11/19 00:24:07;;;;;;;0.28;0.28;;;;;;;7.63;64.48;98802.00;4375197;32;32830;-89
2022/11/19 00:26:34;;;;;;;0.82;0.82;;;;;;;7.48;65.21;98804.50;4375630;32;33162;-90
2022/11/19 00:29:02;;;;;;;0.25;0.25;;;;;;;7.19;65.24;98814.59;4375325;32;32863;-89
2022/11/19 00:31:30;;;;;;;2.33;2.20;;;;;;;7.30;64.50;98814.09;4390507;32;34737;-89
2022/11/19 00:33:58;;;;;;;4.18;1.85;;;;;;;7.25;65.13;98813.44;4365671;32;34126;-89
2022/11/19 00:36:25;;;;;;;1.73;1.62;;;;;;;7.20;65.29;98816.28;4365619;32;32125;-88
2022/11/19 00:38:53;;;;;;;1.08;0.55;;;;;;;6.72;66.93;98814.94;4378529;32;33723;-89
2022/11/19 00:41:21;;;;;;;2.22;1.42;;;;;;;6.45;67.77;98811.72;4376335;32;32908;-87
2022/11/19 00:43:49;;;;;;;1.08;1.02;;;;;;;6.54;67.56;98815.72;4379295;32;32892;-87
2022/11/19 00:46:19;;;;;;;1.42;1.40;;;;;;;6.82;66.82;98823.25;4375887;32;33575;-88
2022/11/19 00:48:49;;;;;;;2.20;1.20;;;;;;;7.03;65.62;98816.22;4349444;32;32780;-89
2022/11/19 00:51:17;;;;;;;2.35;2.15;;;;;;;6.93;65.56;98815.75;4377492;32;33964;-89
2022/11/19 00:53:45;;;;;;;0.57;0.57;;;;;;;6.65;66.82;98821.38;4352099;32;33053;-88
2022/11/19 00:56:15;;;;;;;3.12;2.92;;;;;;;6.53;67.50;98824.50;4384437;32;33818;-88
2022/11/19 00:58:43;;;;;;;0.75;0.75;;;;;;;6.67;66.71;98838.72;4364465;32;33960;-88
2022/11/19 01:01:12;;;;;;;0.43;0.22;;;;;;;6.46;67.48;98844.03;4363369;32;34495;-89
2022/11/19 01:03:40;;;;;;;2.45;2.20;;;;;;;6.25;67.62;98854.50;4363455;32;33531;-89
2022/11/19 01:06:08;;;;;;;1.62;1.52;;;;;;;6.39;67.83;98865.28;4375611;32;31856;-88
2022/11/19 01:08:36;;;;;;;1.00;1.00;;;;;;;6.37;67.70;98885.47;4351538;32;32438;-88
2022/11/19 01:11:09;;;;;;;2.80;1.45;;;;;;;6.08;68.58;98897.16;4376269;32;34779;-88
2022/11/19 01:13:38;;;;;;;0.70;0.60;;;;;;;6.44;67.50;98899.19;4364137;32;32825;-88
2022/11/19 01:16:08;;;;;;;1.00;1.00;;;;;;;6.68;65.93;98899.91;4362584;32;32472;-88
2022/11/19 01:18:36;;;;;;;1.58;1.25;;;;;;;6.51;66.79;98902.41;4394359;32;32911;-88
2022/11/19 01:21:09;;;;;;;0.50;0.50;;;;;;;6.62;65.80;98905.44;4349181;32;34079;-89
2022/11/19 01:23:41;;;;;;;2.45;2.25;;;;;;;6.54;66.13;98910.13;4362653;32;32902;-88
2022/11/19 01:26:10;;;;;;;2.45;2.25;;;;;;;6.60;65.84;98915.16;4375485;32;32757;-89
2022/11/19 01:28:38;;;;;;;1.23;1.23;;;;;;;6.52;65.06;98925.09;4381537;32;33125;-89
2022/11/19 01:31:11;;;;;;;1.60;1.50;;;;;;;6.41;65.82;98930.78;4360596;32;32961;-89
2022/11/19 01:33:39;;;;;;;1.83;1.60;;;;;;;6.38;65.22;98929.13;4374124;32;33251;-88
2022/11/19 01:36:10;;;;;;;2.35;2.17;;;;;;;6.59;64.97;98921.28;4399177;32;33420;-89
2022/11/19 01:38:38;;;;;;;0.43;0.43;;;;;;;6.47;65.25;98924.44;4377746;32;33887;-89
2022/11/19 01:41:06;;;;;;;3.03;1.00;;;;;;;6.22;65.98;98914.94;4376852;32;33902;-89
2022/11/19 01:43:52;;;;;;;1.08;1.08;;;;;;;6.25;66.28;98924.44;4375649;32;33168;-88
2022/11/19 01:46:22;;;;;;;0.65;0.65;;;;;;;6.17;66.37;98927.34;4372750;32;32590;-88
2022/11/19 01:48:59;;;;;;;1.87;1.77;;;;;;;5.92;66.84;98935.31;4362620;32;33799;-88
2022/11/19 01:51:50;;;;;;;0.60;0.60;;;;;;;6.30;65.71;98931.19;4375017;32;33364;-90
2022/11/19 01:54:33;;;;;;;1.65;1.55;;;;;;;6.10;65.75;98946.88;4387389;32;33134;-91
2022/11/19 01:57:13;;;;;;;0.37;0.37;;;;;;;6.18;65.77;98939.56;4365662;32;32516;-91
2022/11/19 01:59:43;;;;;;;0.62;0.62;;;;;;;6.08;65.62;98953.94;4362678;32;33756;-91
2022/11/19 02:02:11;;;;;;;0.65;0.62;;;;;;;6.15;65.41;98961.50;4373552;32;34015;-90
2022/11/19 02:04:43;;;;;;;1.77;1.67;;;;;;;5.93;66.38;98957.13;4360536;32;32882;-91
2022/11/19 02:07:11;;;;;;;1.55;1.45;;;;;;;5.81;66.87;98975.00;4352656;32;32201;-91
2022/11/19 02:09:40;;;;;;;1.25;1.15;;;;;;;5.79;66.13;98995.19;4374839;32;32275;-91
2022/11/19 02:12:38;;;;;;;2.62;2.37;;;;;;;6.03;64.84;98996.06;4362891;32;33019;-90
2022/11/19 02:15:38;;;;;;;0.85;0.82;;;;;;;6.01;64.74;98994.41;4385656;32;33993;-91
2022/11/19 02:18:22;;;;;;;1.83;1.02;;;;;;;6.36;63.32;98991.28;4388471;32;31853;-90
2022/11/19 02:20:54;;;;;;;4.28;3.95;;;;;;;6.12;64.56;98997.44;4393707;32;32828;-91
2022/11/19 02:23:37;;;;;;;1.73;1.65;;;;;;;6.31;63.43;98987.94;4381658;32;34685;-91
2022/11/19 02:26:46;;;;;;;1.27;1.08;;;;;;;6.09;64.39;98984.47;4388103;32;33566;-90
2022/11/19 02:29:30;;;;;;;1.33;1.23;;;;;;;6.24;63.98;98991.75;4393200;32;32965;-89
2022/11/19 02:32:02;;;;;;;4.47;3.30;;;;;;;5.99;64.64;99001.47;4383619;32;32859;-89
2022/11/19 02:34:46;;;;;;;0.40;0.40;;;;;;;6.01;64.23;99020.59;4350730;32;32652;-89
2022/11/19 02:37:30;;;;;;;0.88;0.88;;;;;;;5.97;64.16;99019.84;4374760;32;33534;-89
2022/11/19 02:40:09;;;;;;;1.87;1.77;;;;;;;6.00;63.78;99037.25;4370461;32;32044;-89
2022/11/19 02:43:00;;;;;;;1.10;1.08;;;;;;;5.76;64.34;99047.69;4383459;32;33474;-87
2022/11/19 02:45:42;;;;;;;2.25;0.98;;;;;;;5.89;63.33;99054.19;4362552;32;33973;-87
2022/11/19 02:48:12;;;;;;;0.93;0.93;;;;;;;5.70;64.14;99066.25;4370687;32;34436;-86
2022/11/19 02:50:44;;;;;;;1.73;1.52;;;;;;;5.85;63.70;99077.94;4381356;32;33385;-86
2022/11/19 02:53:11;;;;;;;2.92;2.17;;;;;;;6.00;62.91;99066.91;4394775;32;33866;-86
2022/11/19 02:55:40;;;;;;;2.90;1.80;;;;;;;6.03;62.86;99065.94;4359381;32;34317;-86
2022/11/19 03:04:28;;;;;;;0.68;0.68;;;;;;;6.21;62.08;99062.63;4373993;32;32496;-85
2022/11/19 03:04:29;;;;;;;1.00;0.93;;;;;;;5.68;63.94;99070.66;4391310;32;32663;-85
2022/11/19 03:06:37;;;;;;;1.92;1.65;;;;;;;5.60;64.35;99070.94;4373748;32;34038;-85
2022/11/19 03:09:05;;;;;;;0.15;0.15;;;;;;;5.56;64.41;99081.59;4374248;32;33173;-85
2022/11/19 03:11:32;;;;;;;1.10;1.10;;;;;;;5.72;64.08;99087.97;4361407;32;32599;-85
2022/11/19 03:16:58;;;;;;;2.58;2.42;;;;;;;5.96;63.88;99101.16;4379225;32;34261;-85
2022/11/19 03:19:33;;;;;;;0.85;0.85;;;;;;;6.10;63.25;99099.75;4361244;32;34412;-85
2022/11/19 03:22:34;;;;;;;2.03;1.92;;;;;;;6.15;62.80;99110.91;4385992;32;34074;-85
2022/11/19 03:25:06;;;;;;;3.00;1.60;;;;;;;6.26;62.05;99094.78;4367358;32;34473;-85
2022/11/19 03:27:49;;;;;;;0.90;0.90;;;;;;;6.24;62.11;99086.13;4375966;32;34655;-85
2022/11/19 03:30:18;;;;;;;2.28;2.10;;;;;;;6.03;63.24;99102.63;4380041;32;34584;-86
2022/11/19 03:32:50;;;;;;;0.90;0.88;;;;;;;5.83;63.95;99109.41;4378401;32;34167;-86
2022/11/19 03:35:21;;;;;;;0.75;0.70;;;;;;;5.69;64.84;99113.41;4376908;32;33523;-88
2022/11/19 03:37:51;;;;;;;0.35;0.35;;;;;;;5.81;64.30;99113.84;4363448;32;33264;-88
2022/11/19 03:40:20;;;;;;;1.73;1.45;;;;;;;5.94;63.86;99119.56;4378250;32;32939;-89
2022/11/19 03:42:50;;;;;;;0.88;0.88;;;;;;;5.78;64.44;99120.97;4365950;32;32881;-88
2022/11/19 03:45:20;;;;;;;4.37;3.70;;;;;;;5.63;65.14;99127.59;4377160;32;33774;-88
2022/11/19 03:47:49;;;;;;;1.27;1.02;;;;;;;5.86;63.90;99124.19;4376027;32;33077;-88
2022/11/19 03:50:39;;;;;;;1.37;1.33;;;;;;;5.75;64.25;99119.31;4339065;32;33128;-88
2022/11/19 03:53:07;;;;;;;1.42;1.33;;;;;;;5.73;64.67;99138.59;4389059;32;33614;-88
2022/11/19 03:55:43;;;;;;;3.10;2.80;;;;;;;5.59;65.05;99139.06;4395794;32;34617;-89
2022/11/19 03:58:11;;;;;;;4.20;1.52;;;;;;;5.59;64.92;99144.31;4378082;32;32728;-89
2022/11/19 04:00:39;;;;;;;1.27;1.23;;;;;;;5.86;63.85;99148.59;4379804;32;32659;-89
2022/11/19 04:03:06;;;;;;;3.00;2.12;;;;;;;6.01;62.71;99146.38;4356627;32;32098;-89
2022/11/19 04:05:34;;;;;;;0.98;0.98;;;;;;;6.00;62.41;99140.28;4394486;32;34013;-89
2022/11/19 04:08:01;;;;;;;2.62;2.42;;;;;;;5.84;62.88;99145.19;4391955;32;34181;-90
2022/11/19 04:10:29;;;;;;;3.12;2.40;;;;;;;5.68;63.49;99153.63;4393595;32;32899;-90
2022/11/19 04:12:58;;;;;;;2.10;1.98;;;;;;;5.49;63.80;99169.09;4381484;32;33439;-90
2022/11/19 04:15:25;;;;;;;1.75;0.73;;;;;;;5.67;63.24;99172.88;4363032;32;33011;-90
2022/11/19 04:17:53;;;;;;;0.75;0.75;;;;;;;5.77;62.89;99175.12;4356374;32;32929;-90
2022/11/19 04:20:21;;;;;;;2.92;1.58;;;;;;;5.67;62.92;99178.97;4356597;32;34013;-91
2022/11/19 04:22:51;;;;;;;1.00;1.00;;;;;;;5.78;62.92;99186.44;4368549;32;32544;-90
2022/11/19 04:25:19;;;;;;;1.10;1.10;;;;;;;5.71;63.08;99191.06;4353900;32;33142;-90
2022/11/19 04:27:47;;;;;;;0.40;0.40;;;;;;;5.67;63.07;99197.28;4366190;32;32905;-88
2022/11/19 04:30:15;;;;;;;1.77;1.70;;;;;;;5.64;63.36;99215.72;4353377;32;32881;-89
2022/11/19 04:32:43;;;;;;;3.22;1.95;;;;;;;5.89;62.42;99208.78;4374495;32;33219;-89
2022/11/19 04:35:12;;;;;;;2.60;2.45;;;;;;;5.87;62.10;99213.19;4377877;32;33603;-89
2022/11/19 04:37:40;;;;;;;1.60;1.50;;;;;;;5.84;61.86;99207.19;4383619;32;32685;-88
2022/11/19 04:40:08;;;;;;;1.08;0.75;;;;;;;5.38;63.49;99230.53;4368280;32;33281;-89
2022/11/19 04:42:36;;;;;;;3.17;2.87;;;;;;;5.59;62.93;99233.34;4367996;32;32338;-89
2022/11/19 04:45:03;;;;;;;1.48;1.27;;;;;;;5.56;62.84;99249.19;4371518;32;33204;-89
2022/11/19 04:47:31;;;;;;;2.37;1.58;;;;;;;5.44;63.00;99245.19;4350667;32;33417;-89
2022/11/19 04:49:59;;;;;;;7.12;1.50;;;;;;;5.55;62.50;99247.44;4363173;32;33581;-88
2022/11/19 04:52:26;;;;;;;0.60;0.60;;;;;;;5.49;62.79;99252.88;4393104;32;32504;-87
2022/11/19 04:54:54;;;;;;;2.05;1.95;;;;;;;5.50;62.58;99270.31;4373357;32;33859;-88
2022/11/19 04:57:22;;;;;;;2.37;2.17;;;;;;;5.65;61.99;99278.56;4384313;32;34388;-87
2022/11/19 04:59:49;;;;;;;2.45;1.92;;;;;;;5.52;62.34;99290.31;4385789;32;33547;-85
2022/11/19 05:02:17;;;;;;;2.37;1.87;;;;;;;5.52;62.10;99295.56;4375631;32;33501;-85
2022/11/19 05:04:44;;;;;;;0.20;0.20;;;;;;;5.32;63.14;99293.56;4375758;32;33072;-84
2022/11/19 05:07:12;;;;;;;0.82;0.82;;;;;;;5.34;62.94;99296.97;4367368;32;34368;-85
2022/11/19 05:09:40;;;;;;;0.93;0.93;;;;;;;5.31;62.82;99296.19;4380310;32;33623;-85
2022/11/19 05:12:07;;;;;;;3.05;2.80;;;;;;;5.30;62.39;99302.34;4356385;32;33268;-87
2022/11/19 05:14:37;;;;;;;1.10;1.10;;;;;;;5.24;62.39;99294.69;4364637;32;33032;-87
2022/11/19 05:17:05;;;;;;;1.17;1.08;;;;;;;5.18;62.88;99293.13;4378035;32;32947;-90
2022/11/19 05:19:33;;;;;;;2.78;1.50;;;;;;;5.06;63.43;99303.94;4377649;32;32766;-90
2022/11/19 05:22:02;;;;;;;0.90;0.90;;;;;;;5.21;62.76;99300.84;4385778;32;32668;-90
2022/11/19 05:24:30;;;;;;;6.53;3.62;;;;;;;5.05;63.35;99310.06;4356611;32;32914;-89
2022/11/19 05:26:57;;;;;;;0.70;0.70;;;;;;;5.19;63.13;99307.91;4359389;32;33311;-89
2022/11/19 05:29:25;;;;;;;1.37;1.02;;;;;;;5.32;62.74;99311.03;4351589;32;33221;-89
2022/11/19 05:31:55;;;;;;;1.15;1.05;;;;;;;5.50;61.95;99312.22;4353579;32;32020;-89
2022/11/19 05:34:22;;;;;;;2.97;2.65;;;;;;;5.48;62.01;99306.16;4386842;32;32911;-88
2022/11/19 05:40:17;;;;;;;0.98;0.98;;;;;;;5.47;61.17;99317.56;4392757;32;33222;-87
2022/11/19 05:42:44;;;;;;;1.23;1.15;;;;;;;5.15;62.59;99327.22;4390647;32;32334;-87
2022/11/19 05:45:11;;;;;;;0.77;0.77;;;;;;;4.97;63.05;99333.84;4379956;32;33316;-87
2022/11/19 05:47:39;;;;;;;3.15;2.95;;;;;;;5.00;62.98;99336.38;4377330;32;33328;-88
2022/11/19 05:50:15;;;;;;;2.55;2.35;;;;;;;4.90;63.24;99342.78;4360946;32;33182;-87
2022/11/19 05:52:43;;;;;;;1.20;1.20;;;;;;;5.08;62.92;99346.59;4382145;32;32893;-87
2022/11/19 05:55:10;;;;;;;3.50;1.77;;;;;;;5.01;63.18;99358.16;4354351;32;35307;-86
2022/11/19 05:57:37;;;;;;;0.50;0.50;;;;;;;4.98;62.89;99345.16;4357466;32;34174;-86
2022/11/19 06:00:06;;;;;;;3.40;1.77;;;;;;;5.02;62.97;99349.41;4374889;32;33483;-87
2022/11/19 06:02:38;;;;;;;1.52;1.42;;;;;;;4.96;63.01;99367.91;4371342;32;32544;-86
2022/11/19 06:05:07;;;;;;;4.78;1.50;;;;;;;4.87;63.14;99369.84;4374470;32;32217;-86
2022/11/19 06:07:35;;;;;;;0.30;0.30;;;;;;;4.90;63.38;99368.06;4351853;32;33041;-90
2022/11/19 06:10:02;;;;;;;3.10;1.62;;;;;;;4.99;63.26;99384.37;4350334;32;32672;-89
2022/11/19 06:12:30;;;;;;;2.50;2.30;;;;;;;4.98;63.28;99372.16;4362424;32;34105;-90
2022/11/19 06:14:59;;;;;;;2.05;1.25;;;;;;;4.95;63.32;99376.66;4337328;32;33367;-90
2022/11/19 06:17:27;;;;;;;0.13;0.13;;;;;;;4.80;63.79;99399.72;4375313;32;33361;-91
2022/11/19 06:19:56;;;;;;;2.22;2.12;;;;;;;4.94;63.57;99395.84;4374950;32;32934;-89
2022/11/19 06:22:23;;;;;;;1.40;1.30;;;;;;;5.00;63.43;99406.16;4361775;32;32722;-89
2022/11/19 06:24:51;;;;;;;2.22;2.03;;;;;;;4.65;64.92;99407.94;4349824;32;32706;-88
2022/11/19 06:27:18;;;;;;;1.37;1.30;;;;;;;4.24;67.14;99407.25;4337833;32;33696;-88
2022/11/19 06:29:46;;;;;;;0.37;0.37;;;;;;;4.32;66.70;99418.38;4349488;32;34619;-88
2022/11/19 06:32:20;;;;;;;3.87;2.83;;;;;;;4.32;66.74;99410.53;4374851;32;32381;-88
2022/11/19 06:34:47;;;;;;;1.25;1.25;;;;;;;4.72;65.28;99408.66;4374533;32;34095;-88
2022/11/19 06:37:15;;;;;;;2.20;2.08;;;;;;;4.70;64.83;99416.56;4362486;32;34604;-88
2022/11/19 06:39:43;;;;;;;4.68;1.65;;;;;;;4.75;64.92;99419.91;4362299;32;34641;-89
2022/11/19 06:44:57;;;;;;;1.73;1.62;;;;;;;5.02;64.58;99425.28;4364194;32;32685;-88
2022/11/19 06:47:24;;;;;;;2.75;2.55;;;;;;;5.18;63.96;99423.97;4349443;32;33883;-88
2022/11/19 06:49:51;;;;;;;2.00;1.90;;;;;;;5.16;64.10;99419.69;4361853;32;33707;-89
2022/11/19 06:52:19;;;;;;;4.37;1.80;;;;;;;5.12;64.08;99416.28;4362072;32;33039;-88
2022/11/19 06:54:47;;;;;;;2.10;1.50;;;;;;;5.22;64.46;99417.75;4361774;32;33763;-89
2022/11/19 06:57:14;;;;;;;1.95;1.85;;;;;;;5.03;64.94;99427.88;4349536;32;33014;-88
2022/11/19 06:59:42;;;;;;;1.55;1.45;;;;;;;5.17;64.14;99429.22;4349535;32;32574;-89
2022/11/19 07:02:10;;;;;;;2.62;1.77;;;;;;;5.05;64.41;99430.44;4349498;32;32783;-90
2022/11/19 07:04:38;;;;;;;1.08;1.08;;;;;;;5.12;64.21;99421.50;4385432;32;34169;-88
2022/11/19 07:07:06;;;;;;;1.08;1.08;;;;;;;5.13;64.64;99425.88;4364593;32;34307;-88
2022/11/19 07:09:33;;;;;;;2.03;1.48;;;;;;;5.15;64.48;99431.91;4394693;32;34150;-89
2022/11/19 07:12:01;;;;;;;3.62;1.60;;;;;;;5.11;64.59;99440.75;4381270;32;32204;-88
2022/11/19 07:14:29;;;;;;;6.45;3.40;;;;;;;5.11;64.30;99440.75;4367370;32;33665;-89
2022/11/19 07:16:56;;;;;;;5.55;3.22;;;;;;;4.99;64.81;99441.94;4354640;32;33771;-89
2022/11/19 07:19:24;;;;;;;1.42;1.40;;;;;;;4.98;63.99;99440.19;4369130;32;33010;-89
2022/11/19 07:21:53;;;;;;;6.07;2.00;;;;;;;5.04;64.12;99445.28;4370185;32;33278;-89
2022/11/19 07:24:21;;;;;;;2.20;2.10;;;;;;;4.87;63.91;99448.34;4358941;32;32858;-88
2022/11/19 07:26:49;;;;;;;0.98;0.95;;;;;;;5.23;63.05;99440.41;4391354;32;32995;-87
2022/11/19 07:29:18;;;;;;;2.65;2.45;;;;;;;5.33;62.54;99447.09;4366293;32;33552;-90
2022/11/19 07:32:01;;;;;;;1.70;1.40;;;;;;;5.46;62.35;99449.34;4377033;32;32420;-91
2022/11/19 07:34:43;;;;;;;1.15;1.15;;;;;;;5.50;61.75;99458.84;4343652;33;32703;-91
2022/11/19 07:37:25;;;;;;;2.40;2.25;;;;;;;5.48;61.59;99455.44;4373997;32;33742;-91
2022/11/19 07:40:09;;;;;;;1.15;1.08;;;;;;;5.25;61.89;99464.78;4352562;32;33681;-91
2022/11/19 07:42:52;;;;;;;4.15;3.58;;;;;;;5.27;62.36;99446.41;4326859;33;32552;-91
2022/11/19 07:45:39;;;;;;;1.48;1.45;;;;;;;5.32;62.34;99444.53;4348305;33;34513;-93
2022/11/19 07:48:21;;;;;;;1.70;0.52;;;;;;;5.53;62.59;99437.81;4360156;32;33192;-91
2022/11/19 07:51:03;;;;;;;1.83;1.73;;;;;;;5.75;60.97;99449.41;4376011;32;34136;-92
2022/11/19 07:53:51;;;;;;;1.90;1.80;;;;;;;5.49;61.19;99437.03;4398226;32;32026;-92
2022/11/19 07:56:34;;;;;;;2.10;1.73;;;;;;;5.54;61.44;99440.38;4384656;32;32724;-90
2022/11/19 07:59:25;;;;;;;1.48;1.45;;;;;;;5.35;62.46;99445.28;4392265;32;34574;-89
2022/11/19 08:02:18;;;;;;;1.80;1.70;;;;;;;5.67;61.37;99445.28;4343247;32;33678;-86
2022/11/19 08:04:46;;;;;;;2.28;1.77;;;;;;;5.90;60.96;99446.31;4362089;32;32346;-86
2022/11/19 08:07:13;;;;;;;2.20;1.77;;;;;;;6.22;60.53;99452.37;4367069;32;33787;-86
2022/11/19 08:09:41;;;;;;;2.08;1.62;;;;;;;6.08;61.08;99449.31;4367361;32;33488;-86
2022/11/19 08:12:09;;;;;;;5.50;2.45;;;;;;;6.07;61.77;99450.19;4344698;32;33124;-86
2022/11/19 08:14:37;;;;;;;1.45;1.35;;;;;;;6.11;61.63;99455.28;4367327;32;33404;-86
2022/11/19 08:19:51;;;;;;;2.50;2.30;;;;;;;6.70;57.01;99462.16;4360690;32;33131;-86
2022/11/19 08:22:18;;;;;;;6.80;2.35;;;;;;;6.63;57.42;99469.38;4358886;32;33313;-86
2022/11/19 08:24:46;;;;;;;1.90;1.80;;;;;;;6.55;57.89;99478.38;4365464;32;32260;-86
2022/11/19 08:27:14;;;;;;;1.80;1.70;;;;;;;6.72;56.72;99485.72;4373453;32;34659;-86
2022/11/19 08:29:42;;;;;;;2.20;2.05;;;;;;;6.47;59.03;99480.44;4359967;32;100722;-86
2022/11/19 08:32:09;;;;;;;2.95;2.70;;;;;;;6.01;59.69;99487.09;4336657;32;33334;-86
2022/11/19 08:34:37;;;;;;;1.20;1.20;;;;;;;6.07;60.34;99486.88;4367353;32;32555;-86
2022/11/19 08:37:06;;;;;;;1.80;1.70;;;;;;;6.21;59.28;99499.59;4368919;32;33964;-86
2022/11/19 08:39:34;;;;;;;5.90;4.68;;;;;;;6.45;58.10;99500.56;4364842;32;32975;-86
2022/11/19 08:44:48;;;;;;;1.08;0.98;;;;;;;6.81;56.37;99501.16;4365171;32;32911;-86
2022/11/19 08:47:16;;;;;;;1.90;1.83;;;;;;;6.99;56.18;99512.81;4371983;32;32607;-87
2022/11/19 08:49:43;;;;;;;4.62;2.03;;;;;;;7.18;56.28;99514.78;4347033;32;33220;-86
2022/11/19 08:52:13;;;;;;;3.00;2.78;;;;;;;7.40;55.67;99509.59;4371825;32;33926;-88
2022/11/19 08:54:41;;;;;;;1.95;1.85;;;;;;;7.60;54.78;99493.16;4370645;32;32792;-87
2022/11/19 08:57:08;;;;;;;1.15;1.15;;;;;;;7.61;53.13;99478.25;4365355;32;32423;-88
2022/11/19 08:59:36;;;;;;;0.82;0.82;;;;;;;7.15;56.74;99485.97;4369198;32;33777;-87
2022/11/19 09:02:04;;;;;;;2.10;2.00;;;;;;;7.03;55.16;99527.56;4371035;32;34490;-87
2022/11/19 09:04:31;;;;;;;1.60;1.10;;;;;;;7.06;56.14;99551.94;4366206;32;34050;-87
2022/11/19 09:06:59;;;;;;;1.98;1.83;;;;;;;7.53;55.38;99564.34;4366879;32;34441;-87
2022/11/19 09:09:27;;;;;;;5.05;2.03;;;;;;;7.41;55.12;99569.13;4363977;32;33978;-87
2022/11/19 09:11:54;;;;;;;2.67;2.58;;;;;;;7.30;56.45;99576.50;4334734;32;33286;-87
2022/11/19 09:14:22;;;;;;;2.60;1.87;;;;;;;7.77;55.47;99574.00;4370553;32;33616;-87
2022/11/19 09:16:50;;;;;;;1.23;1.17;;;;;;;8.02;53.94;99576.56;4366902;32;33550;-87
2022/11/19 09:19:17;;;;;;;2.97;2.58;;;;;;;8.10;52.49;99568.41;4358452;32;33781;-87
2022/11/19 09:21:45;;;;;;;2.87;2.67;;;;;;;8.09;52.41;99564.09;4365854;32;33005;-87
2022/11/19 09:24:13;;;;;;;3.55;3.25;;;;;;;7.68;54.87;99569.06;4366348;32;32816;-87
2022/11/19 09:26:40;;;;;;;2.70;2.53;;;;;;;7.48;57.13;99572.41;4366888;32;34101;-87
2022/11/19 09:29:08;;;;;;;2.67;2.47;;;;;;;7.73;55.30;99571.53;4369672;32;33683;-88
2022/11/19 09:31:36;;;;;;;2.83;2.62;;;;;;;7.84;54.66;99567.63;4367231;32;33605;-87
2022/11/19 09:34:04;;;;;;;3.40;2.78;;;;;;;7.38;55.86;99577.09;4367275;32;31957;-87
2022/11/19 09:36:32;;;;;;;1.77;1.70;;;;;;;7.28;57.30;99575.72;4365189;32;32024;-86
2022/11/19 09:39:01;;;;;;;5.30;3.97;;;;;;;7.68;55.94;99563.81;4367494;32;34709;-88
2022/11/19 09:41:59;;;;;;;3.62;2.78;;;;;;;7.79;55.08;99577.44;4369569;32;33752;-88
2022/11/19 09:44:42;;;;;;;2.45;2.25;;;;;;;7.89;54.93;99584.06;4353523;32;33666;-88
2022/11/19 09:47:39;;;;;;;3.75;1.83;;;;;;;8.47;52.63;99583.69;4363647;32;33060;-88
2022/11/19 09:50:18;;;;;;;1.00;1.00;;;;;;;8.62;50.36;99595.41;4361108;32;33713;-87
2022/11/19 09:52:53;;;;;;;4.95;2.12;;;;;;;8.24;52.24;99604.72;4370949;32;33654;-88
2022/11/19 09:55:31;;;;;;;1.85;1.75;;;;;;;7.43;54.93;99590.94;4343645;32;32375;-87
2022/11/19 09:58:06;;;;;;;0.60;0.60;;;;;;;7.82;53.75;99603.59;4374030;32;32842;-87
2022/11/19 10:00:34;;;;;;;1.20;1.20;;;;;;;7.64;54.75;99598.97;4373424;32;33202;-88
2022/11/19 10:03:12;;;;;;;1.58;1.48;;;;;;;7.42;54.22;99607.63;4369392;32;34044;-87
2022/11/19 10:06:14;;;;;;;4.15;3.42;;;;;;;7.78;53.25;99591.47;4368726;32;33782;-88
2022/11/19 10:09:19;;;;;;;4.07;3.72;;;;;;;7.65;53.41;99585.81;4366285;32;32920;-88
2022/11/19 10:12:07;;;;;;;3.03;2.75;;;;;;;7.71;55.49;99590.00;4350613;32;33842;-87
2022/11/19 10:14:47;;;;;;;1.85;1.75;;;;;;;7.75;54.03;99583.72;4357075;32;33820;-87
2022/11/19 10:17:24;;;;;;;1.75;1.65;;;;;;;7.65;53.56;99579.69;4365079;32;32739;-87
2022/11/19 10:19:59;;;;;;;2.75;2.35;;;;;;;7.67;54.04;99583.97;4366938;32;32843;-87
2022/11/19 10:22:35;;;;;;;0.75;0.65;;;;;;;7.68;54.18;99574.31;4356650;32;33660;-88
2022/11/19 10:25:25;;;;;;;2.30;1.87;;;;;;;8.04;53.16;99577.41;4352974;32;32542;-87
2022/11/19 10:28:04;;;;;;;2.05;1.85;;;;;;;8.14;51.96;99563.00;4369544;32;33343;-87
2022/11/19 10:30:32;;;;;;;2.35;2.17;;;;;;;8.01;52.00;99569.59;4358442;32;33956;-86
2022/11/19 10:33:02;;;;;;;2.42;1.90;;;;;;;7.82;53.49;99565.94;4374173;32;33913;-86
2022/11/19 10:35:38;;;;;;;3.75;3.45;;;;;;;7.79;54.43;99568.69;4361754;32;32706;-86
2022/11/19 10:38:15;;;;;;;4.15;2.47;;;;;;;7.83;56.12;99579.06;4361858;32;33907;-86
2022/11/19 10:40:45;;;;;;;1.95;1.85;;;;;;;8.28;53.16;99572.13;4374406;32;33330;-86
2022/11/19 10:43:20;;;;;;;4.18;2.80;;;;;;;9.00;50.31;99564.91;4362035;32;32844;-86
2022/11/19 10:45:49;;;;;;;3.92;2.67;;;;;;;8.65;51.72;99569.84;4374202;32;33571;-86
2022/11/19 10:48:21;;;;;;;4.12;3.80;;;;;;;8.92;49.06;99567.00;4361713;32;32672;-85
2022/11/19 10:50:50;;;;;;;6.35;5.82;;;;;;;8.67;51.01;99570.62;4362241;32;35696;-86
2022/11/19 10:53:25;;;;;;;3.67;3.35;;;;;;;9.01;50.32;99558.72;4361960;32;34001;-86
2022/11/19 10:56:00;;;;;;;1.37;1.30;;;;;;;9.20;50.47;99554.41;4362056;32;33443;-86
2022/11/19 10:58:31;;;;;;;3.05;2.22;;;;;;;9.08;49.22;99562.84;4374221;32;33457;-86
2022/11/19 11:01:00;;;;;;;3.42;2.80;;;;;;;8.21;54.32;99566.22;4361381;32;33584;-85
2022/11/19 11:03:35;;;;;;;4.82;3.92;;;;;;;8.39;53.33;99576.09;4368593;32;34015;-86
2022/11/19 11:06:06;;;;;;;1.67;1.65;;;;;;;8.28;53.46;99575.63;4374085;32;34570;-86
2022/11/19 11:08:52;;;;;;;1.25;1.25;;;;;;;8.68;52.28;99589.91;4361823;32;33074;-87
2022/11/19 11:17:26;;;;;;;2.37;2.28;;;;;;;8.77;53.40;99594.81;4346704;32;34271;-87
2022/11/19 11:19:56;;;;;;;2.42;2.22;;;;;;;8.32;54.45;99607.94;4373527;32;33537;-88
2022/11/19 11:22:25;;;;;;;1.92;1.70;;;;;;;8.60;52.44;99597.25;4360517;32;34310;-89
2022/11/19 11:24:56;;;;;;;1.98;1.87;;;;;;;8.38;52.87;99613.84;4351750;32;33294;-89
2022/11/19 11:27:34;;;;;;;1.80;1.30;;;;;;;8.50;51.69;99614.28;4346120;32;33455;-89
2022/11/19 11:30:11;;;;;;;1.58;1.30;;;;;;;8.63;51.65;99612.91;4358691;32;33326;-86
2022/11/19 11:32:40;;;;;;;2.03;1.85;;;;;;;8.00;54.16;99607.34;4365493;32;33716;-86
2022/11/19 11:35:31;;;;;;;2.25;1.95;;;;;;;7.79;55.17;99623.91;4346275;32;32483;-85
2022/11/19 11:38:00;;;;;;;3.90;2.33;;;;;;;7.83;55.43;99610.59;4362160;32;32728;-85
2022/11/19 11:40:28;;;;;;;6.72;4.75;;;;;;;8.29;52.99;99603.63;4362933;32;32957;-85
2022/11/19 11:42:56;;;;;;;2.12;2.03;;;;;;;8.58;52.16;99593.81;4362016;32;33097;-84
2022/11/19 11:45:30;;;;;;;2.67;2.47;;;;;;;8.62;51.51;99598.88;4351702;32;34195;-85
2022/11/19 11:48:05;;;;;;;3.33;2.35;;;;;;;8.17;52.86;99593.59;4342610;32;33905;-84
2022/11/19 11:50:34;;;;;;;3.10;2.90;;;;;;;7.74;54.37;99600.41;4350732;32;33322;-84
2022/11/19 11:53:07;;;;;;;1.80;1.65;;;;;;;8.18;52.85;99601.41;4355162;32;33711;-84
2022/11/19 11:55:37;;;;;;;7.40;3.25;;;;;;;8.24;53.50;99596.84;4364423;32;36546;-85
2022/11/19 11:58:23;;;;;;;2.33;1.23;;;;;;;8.37;52.60;99596.34;4363388;32;32903;-84
2022/11/19 12:01:09;;;;;;;2.25;2.05;;;;;;;8.12;54.43;99599.03;4365227;32;32525;-84
2022/11/19 12:03:56;;;;;;;2.12;2.03;;;;;;;8.48;52.56;99600.34;4366369;32;32802;-85
2022/11/19 12:06:35;;;;;;;1.02;1.02;;;;;;;7.88;54.62;99595.50;4367427;32;33358;-84
2022/11/19 12:09:27;;;;;;;1.92;1.40;;;;;;;8.27;53.27;99592.31;4361680;32;33111;-85
2022/11/19 12:12:03;;;;;;;2.03;1.75;;;;;;;8.24;53.44;99591.56;4363634;32;33739;-85
2022/11/19 12:14:39;;;;;;;4.57;1.85;;;;;;;8.23;52.41;99587.25;4362122;32;32993;-85
2022/11/19 12:17:13;;;;;;;1.37;1.30;;;;;;;8.54;51.61;99576.41;4353177;32;33363;-85
2022/11/19 12:19:59;;;;;;;3.80;2.80;;;;;;;8.97;50.78;99576.44;4358849;32;34038;-85
2022/11/19 12:22:35;;;;;;;2.28;2.17;;;;;;;9.05;50.22;99585.78;4343891;32;32982;-85
2022/11/19 12:25:13;;;;;;;2.20;2.00;;;;;;;9.02;50.60;99578.00;4361657;32;33439;-85
2022/11/19 12:28:21;;;;;;;2.50;2.33;;;;;;;9.16;50.10;99578.28;4363379;32;33383;-85
2022/11/19 12:31:23;;;;;;;3.47;3.17;;;;;;;8.74;52.36;99581.78;4330593;32;31947;-85
2022/11/19 12:34:13;;;;;;;1.75;1.52;;;;;;;8.85;51.82;99569.03;4353691;32;32816;-85